Main page


Airports :

Northolt, England

RAF Northolt

latitude: 51-33N, longitude: 000-25W, elevation: 38 m

Current weather observation

The report was made 56 minutes ago, at 16:50 UTC
Wind 12 kt from the Northeast
Temperature 7°C
Humidity 61%
Pressure 1030 hPa
Visibility 10 km or more
Scattered clouds at a height of 4500 ft

METAR: EGWU 201650Z 04012KT 9999 SCT045 07/00 Q1030 NOSIG

Time: 17:46 (17:46 UTC)


The report was made 57 minutes ago, at 16:49 UTC
Forecast valid from 20 at 18 UTC to 21 at 12 UTC
Wind 9 kt from the North/Northeast
Visibility 10 km or more
Scattered clouds at a height of 4000 ft
from 21 at 01 UTC to 21 at 04 UTC
Visibility: 7000 m
Probability 40%
from 21 at 04 UTC to 21 at 07 UTC
Visibility: 4000 m
Shallow fog
from 21 at 07 UTC to 21 at 09 UTC
Visibility 10 km or more

TAF: EGWU 201649Z 2018/2112 02009KT 9999 SCT040 BECMG 2101/2104 7000 BR PROB40 2104/2107 4000 MIFG BECMG 2107/2109 9999 NSW

Weather observations and forecasts of more than 4000 airports (METAR and TAF reports).

The available stations are represented by yellow and red dots on the map.

Hover mouse over dot to see the name of the station.

Then click to see weather observations and forecasts.

To change the map : click on the green buttons with a black cross to zoom in, on the green button with a dash to zoom out, or on the green arrows for adjacent maps.